sensor_id;sensor_type;location;lat;lon;timestamp;temperature;humidity
78704;SHT31;68034;51.966;5.676;2023-04-16T00:00:57;12.7;67.4
78704;SHT31;68034;51.966;5.676;2023-04-16T00:03:28;12.7;67.6
78704;SHT31;68034;51.966;5.676;2023-04-16T00:05:56;12.7;67.9
78704;SHT31;68034;51.966;5.676;2023-04-16T00:08:27;12.7;68.3
78704;SHT31;68034;51.966;5.676;2023-04-16T00:10:56;12.7;68.1
78704;SHT31;68034;51.966;5.676;2023-04-16T00:13:25;12.7;68.5
78704;SHT31;68034;51.966;5.676;2023-04-16T00:15:53;12.7;68.5
78704;SHT31;68034;51.966;5.676;2023-04-16T00:18:22;12.7;68.2
78704;SHT31;68034;51.966;5.676;2023-04-16T00:20:51;12.7;68.2
78704;SHT31;68034;51.966;5.676;2023-04-16T00:23:22;12.7;68.7
78704;SHT31;68034;51.966;5.676;2023-04-16T00:25:52;12.7;68.4
78704;SHT31;68034;51.966;5.676;2023-04-16T00:28:22;12.7;68.5
78704;SHT31;68034;51.966;5.676;2023-04-16T00:30:51;12.7;68.6
78704;SHT31;68034;51.966;5.676;2023-04-16T00:33:20;12.7;68.5
78704;SHT31;68034;51.966;5.676;2023-04-16T00:35:49;12.7;68.7
78704;SHT31;68034;51.966;5.676;2023-04-16T00:38:18;12.7;68.7
78704;SHT31;68034;51.966;5.676;2023-04-16T00:40:46;12.7;68.9
78704;SHT31;68034;51.966;5.676;2023-04-16T00:43:21;12.7;69.0
78704;SHT31;68034;51.966;5.676;2023-04-16T00:45:51;12.7;69.0
78704;SHT31;68034;51.966;5.676;2023-04-16T00:48:21;12.7;69.1
78704;SHT31;68034;51.966;5.676;2023-04-16T00:50:53;12.7;69.1
78704;SHT31;68034;51.966;5.676;2023-04-16T00:53:23;12.7;69.0
78704;SHT31;68034;51.966;5.676;2023-04-16T00:55:52;12.7;69.2
78704;SHT31;68034;51.966;5.676;2023-04-16T00:58:23;12.7;69.3
78704;SHT31;68034;51.966;5.676;2023-04-16T01:00:52;12.7;69.4
78704;SHT31;68034;51.966;5.676;2023-04-16T01:03:22;12.7;69.3
78704;SHT31;68034;51.966;5.676;2023-04-16T01:05:51;12.7;69.7
78704;SHT31;68034;51.966;5.676;2023-04-16T01:08:20;12.7;69.6
78704;SHT31;68034;51.966;5.676;2023-04-16T01:10:53;12.7;69.4
78704;SHT31;68034;51.966;5.676;2023-04-16T01:13:23;12.8;69.5
78704;SHT31;68034;51.966;5.676;2023-04-16T01:15:52;12.8;69.2
78704;SHT31;68034;51.966;5.676;2023-04-16T01:18:23;12.8;69.1
78704;SHT31;68034;51.966;5.676;2023-04-16T01:20:54;12.9;69.2
78704;SHT31;68034;51.966;5.676;2023-04-16T01:23:23;13.0;68.9
78704;SHT31;68034;51.966;5.676;2023-04-16T01:25:56;13.1;68.4
78704;SHT31;68034;51.966;5.676;2023-04-16T01:28:27;13.1;68.4
78704;SHT31;68034;51.966;5.676;2023-04-16T01:30:55;13.2;67.9
78704;SHT31;68034;51.966;5.676;2023-04-16T01:33:24;13.2;67.8
78704;SHT31;68034;51.966;5.676;2023-04-16T01:35:55;13.3;67.5
78704;SHT31;68034;51.966;5.676;2023-04-16T01:38:25;13.3;67.4
78704;SHT31;68034;51.966;5.676;2023-04-16T01:40:56;13.3;67.4
78704;SHT31;68034;51.966;5.676;2023-04-16T01:43:25;13.2;67.3
78704;SHT31;68034;51.966;5.676;2023-04-16T01:46:08;13.2;67.7
78704;SHT31;68034;51.966;5.676;2023-04-16T01:48:32;13.1;68.2
78704;SHT31;68034;51.966;5.676;2023-04-16T01:51:01;13.1;68.2
78704;SHT31;68034;51.966;5.676;2023-04-16T01:53:30;13.0;68.0
78704;SHT31;68034;51.966;5.676;2023-04-16T01:55:59;13.0;68.4
78704;SHT31;68034;51.966;5.676;2023-04-16T01:58:29;12.9;68.7
78704;SHT31;68034;51.966;5.676;2023-04-16T02:00:58;12.9;68.6
78704;SHT31;68034;51.966;5.676;2023-04-16T02:03:27;12.8;69.0
78704;SHT31;68034;51.966;5.676;2023-04-16T02:05:56;12.8;69.0
78704;SHT31;68034;51.966;5.676;2023-04-16T02:08:26;12.7;69.6
78704;SHT31;68034;51.966;5.676;2023-04-16T02:10:56;12.7;69.9
78704;SHT31;68034;51.966;5.676;2023-04-16T02:13:25;12.6;70.2
78704;SHT31;68034;51.966;5.676;2023-04-16T02:15:53;12.6;70.2
78704;SHT31;68034;51.966;5.676;2023-04-16T02:18:22;12.6;70.6
78704;SHT31;68034;51.966;5.676;2023-04-16T02:20:51;12.6;70.4
78704;SHT31;68034;51.966;5.676;2023-04-16T02:23:19;12.6;70.4
78704;SHT31;68034;51.966;5.676;2023-04-16T02:25:48;12.6;70.6
78704;SHT31;68034;51.966;5.676;2023-04-16T02:28:18;12.6;70.6
78704;SHT31;68034;51.966;5.676;2023-04-16T02:30:47;12.6;70.5
78704;SHT31;68034;51.966;5.676;2023-04-16T02:33:15;12.5;70.9
78704;SHT31;68034;51.966;5.676;2023-04-16T02:35:45;12.5;70.7
78704;SHT31;68034;51.966;5.676;2023-04-16T02:38:17;12.5;70.8
78704;SHT31;68034;51.966;5.676;2023-04-16T02:40:51;12.5;70.6
78704;SHT31;68034;51.966;5.676;2023-04-16T02:43:19;12.5;70.9
78704;SHT31;68034;51.966;5.676;2023-04-16T02:45:48;12.5;70.9
78704;SHT31;68034;51.966;5.676;2023-04-16T02:48:16;12.5;71.0
78704;SHT31;68034;51.966;5.676;2023-04-16T02:50:45;12.5;71.1
78704;SHT31;68034;51.966;5.676;2023-04-16T02:53:13;12.5;70.8
78704;SHT31;68034;51.966;5.676;2023-04-16T02:55:49;12.5;71.1
78704;SHT31;68034;51.966;5.676;2023-04-16T02:58:21;12.5;71.1
78704;SHT31;68034;51.966;5.676;2023-04-16T03:00:54;12.5;70.9
78704;SHT31;68034;51.966;5.676;2023-04-16T03:03:22;12.5;70.8
78704;SHT31;68034;51.966;5.676;2023-04-16T03:05:51;12.5;71.0
78704;SHT31;68034;51.966;5.676;2023-04-16T03:08:21;12.5;70.7
78704;SHT31;68034;51.966;5.676;2023-04-16T03:10:50;12.5;71.1
78704;SHT31;68034;51.966;5.676;2023-04-16T03:13:18;12.5;70.8
78704;SHT31;68034;51.966;5.676;2023-04-16T03:15:49;12.5;71.2
78704;SHT31;68034;51.966;5.676;2023-04-16T03:18:17;12.5;71.2
78704;SHT31;68034;51.966;5.676;2023-04-16T03:20:50;12.5;71.0
78704;SHT31;68034;51.966;5.676;2023-04-16T03:23:19;12.5;71.1
78704;SHT31;68034;51.966;5.676;2023-04-16T03:25:47;12.5;70.8
78704;SHT31;68034;51.966;5.676;2023-04-16T03:28:16;12.5;70.8
78704;SHT31;68034;51.966;5.676;2023-04-16T03:30:51;12.5;71.2
78704;SHT31;68034;51.966;5.676;2023-04-16T03:33:20;12.5;71.1
78704;SHT31;68034;51.966;5.676;2023-04-16T03:35:55;12.5;70.9
78704;SHT31;68034;51.966;5.676;2023-04-16T03:38:25;12.5;71.0
78704;SHT31;68034;51.966;5.676;2023-04-16T03:40:53;12.5;71.1
78704;SHT31;68034;51.966;5.676;2023-04-16T03:43:22;12.5;71.2
78704;SHT31;68034;51.966;5.676;2023-04-16T03:45:51;12.5;71.1
78704;SHT31;68034;51.966;5.676;2023-04-16T03:48:20;12.5;71.2
78704;SHT31;68034;51.966;5.676;2023-04-16T03:50:49;12.5;71.5
78704;SHT31;68034;51.966;5.676;2023-04-16T03:53:17;12.5;71.4
78704;SHT31;68034;51.966;5.676;2023-04-16T03:55:48;12.5;71.3
78704;SHT31;68034;51.966;5.676;2023-04-16T03:58:18;12.5;71.2
78704;SHT31;68034;51.966;5.676;2023-04-16T04:00:47;12.5;71.1
78704;SHT31;68034;51.966;5.676;2023-04-16T04:03:17;12.5;70.9
78704;SHT31;68034;51.966;5.676;2023-04-16T04:05:48;12.4;70.9
78704;SHT31;68034;51.966;5.676;2023-04-16T04:08:18;12.4;71.2
78704;SHT31;68034;51.966;5.676;2023-04-16T04:10:47;12.4;71.0
78704;SHT31;68034;51.966;5.676;2023-04-16T04:13:16;12.4;71.2
78704;SHT31;68034;51.966;5.676;2023-04-16T04:15:47;12.4;71.2
78704;SHT31;68034;51.966;5.676;2023-04-16T04:18:15;12.4;71.6
78704;SHT31;68034;51.966;5.676;2023-04-16T04:20:44;12.4;71.7
78704;SHT31;68034;51.966;5.676;2023-04-16T04:23:13;12.4;71.4
78704;SHT31;68034;51.966;5.676;2023-04-16T04:25:41;12.4;71.5
78704;SHT31;68034;51.966;5.676;2023-04-16T04:28:11;12.4;71.4
78704;SHT31;68034;51.966;5.676;2023-04-16T04:30:41;12.4;71.5
78704;SHT31;68034;51.966;5.676;2023-04-16T04:33:09;12.4;71.4
78704;SHT31;68034;51.966;5.676;2023-04-16T04:35:38;12.4;71.1
78704;SHT31;68034;51.966;5.676;2023-04-16T04:38:06;12.4;71.1
78704;SHT31;68034;51.966;5.676;2023-04-16T04:40:35;12.4;71.4
78704;SHT31;68034;51.966;5.676;2023-04-16T04:43:04;12.4;71.0
78704;SHT31;68034;51.966;5.676;2023-04-16T04:45:35;12.4;70.9
78704;SHT31;68034;51.966;5.676;2023-04-16T04:48:04;12.4;71.1
78704;SHT31;68034;51.966;5.676;2023-04-16T04:50:37;12.3;71.2
78704;SHT31;68034;51.966;5.676;2023-04-16T04:53:06;12.3;71.6
78704;SHT31;68034;51.966;5.676;2023-04-16T04:55:40;12.3;71.3
78704;SHT31;68034;51.966;5.676;2023-04-16T04:58:08;12.3;71.4
78704;SHT31;68034;51.966;5.676;2023-04-16T05:00:37;12.3;71.5
78704;SHT31;68034;51.966;5.676;2023-04-16T05:03:09;12.2;71.8
78704;SHT31;68034;51.966;5.676;2023-04-16T05:05:40;12.2;71.9
78704;SHT31;68034;51.966;5.676;2023-04-16T05:08:09;12.2;71.9
78704;SHT31;68034;51.966;5.676;2023-04-16T05:10:38;12.2;71.9
78704;SHT31;68034;51.966;5.676;2023-04-16T05:13:06;12.2;72.0
78704;SHT31;68034;51.966;5.676;2023-04-16T05:15:36;12.2;72.2
78704;SHT31;68034;51.966;5.676;2023-04-16T05:18:05;12.2;72.3
78704;SHT31;68034;51.966;5.676;2023-04-16T05:20:35;12.2;72.2
78704;SHT31;68034;51.966;5.676;2023-04-16T05:23:04;12.2;72.3
78704;SHT31;68034;51.966;5.676;2023-04-16T05:25:33;12.2;72.3
78704;SHT31;68034;51.966;5.676;2023-04-16T05:28:04;12.2;72.2
78704;SHT31;68034;51.966;5.676;2023-04-16T05:30:32;12.2;72.3
78704;SHT31;68034;51.966;5.676;2023-04-16T05:33:03;12.2;72.4
78704;SHT31;68034;51.966;5.676;2023-04-16T05:35:33;12.2;72.7
78704;SHT31;68034;51.966;5.676;2023-04-16T05:38:05;12.2;72.4
78704;SHT31;68034;51.966;5.676;2023-04-16T05:40:33;12.2;72.7
78704;SHT31;68034;51.966;5.676;2023-04-16T05:43:02;12.2;72.6
78704;SHT31;68034;51.966;5.676;2023-04-16T05:45:33;12.2;72.7
78704;SHT31;68034;51.966;5.676;2023-04-16T05:48:06;12.2;72.7
78704;SHT31;68034;51.966;5.676;2023-04-16T05:50:36;12.2;72.8
78704;SHT31;68034;51.966;5.676;2023-04-16T05:53:06;12.2;72.6
78704;SHT31;68034;51.966;5.676;2023-04-16T05:55:36;12.3;72.8
78704;SHT31;68034;51.966;5.676;2023-04-16T05:58:05;12.3;72.4
78704;SHT31;68034;51.966;5.676;2023-04-16T06:00:33;12.3;72.4
78704;SHT31;68034;51.966;5.676;2023-04-16T06:03:02;12.3;72.3
78704;SHT31;68034;51.966;5.676;2023-04-16T06:05:31;12.3;72.4
78704;SHT31;68034;51.966;5.676;2023-04-16T06:08:00;12.3;72.4
78704;SHT31;68034;51.966;5.676;2023-04-16T06:10:28;12.4;72.0
78704;SHT31;68034;51.966;5.676;2023-04-16T06:12:57;12.4;72.1
78704;SHT31;68034;51.966;5.676;2023-04-16T06:15:25;12.4;71.9
78704;SHT31;68034;51.966;5.676;2023-04-16T06:17:55;12.4;72.2
78704;SHT31;68034;51.966;5.676;2023-04-16T06:20:23;12.4;72.2
78704;SHT31;68034;51.966;5.676;2023-04-16T06:22:52;12.4;72.3
78704;SHT31;68034;51.966;5.676;2023-04-16T06:25:23;12.4;72.2
78704;SHT31;68034;51.966;5.676;2023-04-16T06:27:51;12.4;72.1
78704;SHT31;68034;51.966;5.676;2023-04-16T06:30:20;12.4;72.1
78704;SHT31;68034;51.966;5.676;2023-04-16T06:32:49;12.4;72.3
78704;SHT31;68034;51.966;5.676;2023-04-16T06:35:18;12.4;72.3
78704;SHT31;68034;51.966;5.676;2023-04-16T06:37:46;12.4;72.3
78704;SHT31;68034;51.966;5.676;2023-04-16T06:40:15;12.4;72.4
78704;SHT31;68034;51.966;5.676;2023-04-16T06:42:47;12.5;72.2
78704;SHT31;68034;51.966;5.676;2023-04-16T06:45:16;12.5;72.2
78704;SHT31;68034;51.966;5.676;2023-04-16T06:47:48;12.6;72.3
78704;SHT31;68034;51.966;5.676;2023-04-16T06:50:18;12.7;72.2
78704;SHT31;68034;51.966;5.676;2023-04-16T06:52:48;12.9;71.5
78704;SHT31;68034;51.966;5.676;2023-04-16T06:55:19;13.0;70.6
78704;SHT31;68034;51.966;5.676;2023-04-16T06:57:48;13.1;70.1
78704;SHT31;68034;51.966;5.676;2023-04-16T07:00:23;13.2;69.8
78704;SHT31;68034;51.966;5.676;2023-04-16T07:02:55;13.3;69.3
78704;SHT31;68034;51.966;5.676;2023-04-16T07:05:25;13.4;68.6
78704;SHT31;68034;51.966;5.676;2023-04-16T07:07:54;13.4;68.4
78704;SHT31;68034;51.966;5.676;2023-04-16T07:10:23;13.4;68.3
78704;SHT31;68034;51.966;5.676;2023-04-16T07:12:52;13.3;68.6
78704;SHT31;68034;51.966;5.676;2023-04-16T07:15:21;13.3;68.6
78704;SHT31;68034;51.966;5.676;2023-04-16T07:17:49;13.3;68.7
78704;SHT31;68034;51.966;5.676;2023-04-16T07:20:20;13.2;68.8
78704;SHT31;68034;51.966;5.676;2023-04-16T07:22:52;13.2;69.1
78704;SHT31;68034;51.966;5.676;2023-04-16T07:25:20;13.1;69.4
78704;SHT31;68034;51.966;5.676;2023-04-16T07:27:49;13.1;69.6
78704;SHT31;68034;51.966;5.676;2023-04-16T07:30:18;13.1;69.5
78704;SHT31;68034;51.966;5.676;2023-04-16T07:32:46;13.0;69.6
78704;SHT31;68034;51.966;5.676;2023-04-16T07:35:15;13.0;69.8
78704;SHT31;68034;51.966;5.676;2023-04-16T07:37:44;13.0;70.1
78704;SHT31;68034;51.966;5.676;2023-04-16T07:40:15;12.9;70.3
78704;SHT31;68034;51.966;5.676;2023-04-16T07:42:43;12.9;70.4
78704;SHT31;68034;51.966;5.676;2023-04-16T07:45:12;12.9;70.4
78704;SHT31;68034;51.966;5.676;2023-04-16T07:47:43;12.9;70.6
78704;SHT31;68034;51.966;5.676;2023-04-16T07:50:15;12.9;70.9
78704;SHT31;68034;51.966;5.676;2023-04-16T07:52:47;12.8;70.8
78704;SHT31;68034;51.966;5.676;2023-04-16T07:55:18;12.8;70.8
78704;SHT31;68034;51.966;5.676;2023-04-16T07:57:47;12.8;71.0
78704;SHT31;68034;51.966;5.676;2023-04-16T08:00:18;12.8;71.1
78704;SHT31;68034;51.966;5.676;2023-04-16T08:02:47;12.8;71.3
78704;SHT31;68034;51.966;5.676;2023-04-16T08:05:16;12.8;71.4
78704;SHT31;68034;51.966;5.676;2023-04-16T08:07:44;12.8;71.2
78704;SHT31;68034;51.966;5.676;2023-04-16T08:10:13;12.8;71.2
78704;SHT31;68034;51.966;5.676;2023-04-16T08:12:45;12.9;71.4
78704;SHT31;68034;51.966;5.676;2023-04-16T08:15:14;12.9;71.5
78704;SHT31;68034;51.966;5.676;2023-04-16T08:17:45;12.9;71.7
78704;SHT31;68034;51.966;5.676;2023-04-16T08:20:15;12.9;71.6
78704;SHT31;68034;51.966;5.676;2023-04-16T08:22:44;12.9;71.5
78704;SHT31;68034;51.966;5.676;2023-04-16T08:25:13;12.9;71.1
78704;SHT31;68034;51.966;5.676;2023-04-16T08:27:41;13.0;71.2
78704;SHT31;68034;51.966;5.676;2023-04-16T08:30:10;13.0;71.2
78704;SHT31;68034;51.966;5.676;2023-04-16T08:32:43;13.0;71.3
78704;SHT31;68034;51.966;5.676;2023-04-16T08:35:14;13.0;71.1
78704;SHT31;68034;51.966;5.676;2023-04-16T08:37:42;13.0;70.5
78704;SHT31;68034;51.966;5.676;2023-04-16T08:40:14;13.0;70.8
78704;SHT31;68034;51.966;5.676;2023-04-16T08:42:53;13.1;70.8
78704;SHT31;68034;51.966;5.676;2023-04-16T08:45:25;13.1;70.9
78704;SHT31;68034;51.966;5.676;2023-04-16T08:47:54;13.1;70.8
78704;SHT31;68034;51.966;5.676;2023-04-16T08:50:25;13.1;70.9
78704;SHT31;68034;51.966;5.676;2023-04-16T08:52:57;13.2;70.5
78704;SHT31;68034;51.966;5.676;2023-04-16T08:55:33;13.2;70.3
78704;SHT31;68034;51.966;5.676;2023-04-16T08:58:08;13.2;70.0
78704;SHT31;68034;51.966;5.676;2023-04-16T09:00:38;13.2;70.2
78704;SHT31;68034;51.966;5.676;2023-04-16T09:03:08;13.2;70.0
78704;SHT31;68034;51.966;5.676;2023-04-16T09:05:38;13.3;70.3
78704;SHT31;68034;51.966;5.676;2023-04-16T09:08:07;13.3;70.2
78704;SHT31;68034;51.966;5.676;2023-04-16T09:10:38;13.3;70.1
78704;SHT31;68034;51.966;5.676;2023-04-16T09:13:09;13.3;69.8
78704;SHT31;68034;51.966;5.676;2023-04-16T09:15:40;13.3;70.2
78704;SHT31;68034;51.966;5.676;2023-04-16T09:18:09;13.3;70.1
78704;SHT31;68034;51.966;5.676;2023-04-16T09:20:40;13.4;70.2
78704;SHT31;68034;51.966;5.676;2023-04-16T09:23:10;13.4;69.7
78704;SHT31;68034;51.966;5.676;2023-04-16T09:25:38;13.4;69.9
78704;SHT31;68034;51.966;5.676;2023-04-16T09:28:08;13.4;69.5
78704;SHT31;68034;51.966;5.676;2023-04-16T09:30:37;13.5;69.6
78704;SHT31;68034;51.966;5.676;2023-04-16T09:33:14;13.5;69.4
78704;SHT31;68034;51.966;5.676;2023-04-16T09:35:48;13.5;69.3
78704;SHT31;68034;51.966;5.676;2023-04-16T09:38:18;13.6;69.4
78704;SHT31;68034;51.966;5.676;2023-04-16T09:40:47;13.6;69.0
78704;SHT31;68034;51.966;5.676;2023-04-16T09:43:20;13.6;69.7
78704;SHT31;68034;51.966;5.676;2023-04-16T09:45:52;13.6;69.4
78704;SHT31;68034;51.966;5.676;2023-04-16T09:48:30;13.7;68.7
78704;SHT31;68034;51.966;5.676;2023-04-16T09:51:05;13.7;68.0
78704;SHT31;68034;51.966;5.676;2023-04-16T09:53:34;13.8;68.2
78704;SHT31;68034;51.966;5.676;2023-04-16T09:56:05;13.8;68.7
78704;SHT31;68034;51.966;5.676;2023-04-16T09:58:35;13.8;69.2
78704;SHT31;68034;51.966;5.676;2023-04-16T10:01:09;13.8;69.2
78704;SHT31;68034;51.966;5.676;2023-04-16T10:03:39;13.9;69.0
78704;SHT31;68034;51.966;5.676;2023-04-16T10:06:20;13.9;68.4
78704;SHT31;68034;51.966;5.676;2023-04-16T10:08:56;14.0;68.7
78704;SHT31;68034;51.966;5.676;2023-04-16T10:11:25;14.1;68.0
78704;SHT31;68034;51.966;5.676;2023-04-16T10:13:54;14.1;67.9
78704;SHT31;68034;51.966;5.676;2023-04-16T10:16:25;14.2;67.5
78704;SHT31;68034;51.966;5.676;2023-04-16T10:18:55;14.2;67.6
78704;SHT31;68034;51.966;5.676;2023-04-16T10:21:24;14.3;67.3
78704;SHT31;68034;51.966;5.676;2023-04-16T10:24:00;14.3;67.3
78704;SHT31;68034;51.966;5.676;2023-04-16T10:26:46;14.4;66.6
78704;SHT31;68034;51.966;5.676;2023-04-16T10:29:18;14.5;66.1
78704;SHT31;68034;51.966;5.676;2023-04-16T10:31:48;14.5;66.2
78704;SHT31;68034;51.966;5.676;2023-04-16T10:34:18;14.6;66.0
78704;SHT31;68034;51.966;5.676;2023-04-16T10:36:50;14.6;65.5
78704;SHT31;68034;51.966;5.676;2023-04-16T10:39:21;14.6;66.1
78704;SHT31;68034;51.966;5.676;2023-04-16T10:42:05;14.7;66.1
78704;SHT31;68034;51.966;5.676;2023-04-16T10:44:24;14.7;65.6
78704;SHT31;68034;51.966;5.676;2023-04-16T10:46:53;14.8;65.4
78704;SHT31;68034;51.966;5.676;2023-04-16T10:49:24;14.8;65.0
78704;SHT31;68034;51.966;5.676;2023-04-16T10:51:54;14.9;65.1
78704;SHT31;68034;51.966;5.676;2023-04-16T10:54:27;14.9;64.9
78704;SHT31;68034;51.966;5.676;2023-04-16T10:56:58;14.9;65.1
78704;SHT31;68034;51.966;5.676;2023-04-16T10:59:32;14.9;64.7
78704;SHT31;68034;51.966;5.676;2023-04-16T11:02:07;15.0;65.1
78704;SHT31;68034;51.966;5.676;2023-04-16T11:04:38;15.0;64.5
78704;SHT31;68034;51.966;5.676;2023-04-16T11:07:18;15.0;64.0
78704;SHT31;68034;51.966;5.676;2023-04-16T11:09:58;15.0;64.0
78704;SHT31;68034;51.966;5.676;2023-04-16T11:12:33;15.1;63.9
78704;SHT31;68034;51.966;5.676;2023-04-16T11:15:04;15.1;64.2
78704;SHT31;68034;51.966;5.676;2023-04-16T11:17:36;15.1;64.2
78704;SHT31;68034;51.966;5.676;2023-04-16T11:20:08;15.1;64.2
78704;SHT31;68034;51.966;5.676;2023-04-16T11:22:37;15.1;64.1
78704;SHT31;68034;51.966;5.676;2023-04-16T11:25:09;15.2;64.1
78704;SHT31;68034;51.966;5.676;2023-04-16T11:27:38;15.2;63.2
78704;SHT31;68034;51.966;5.676;2023-04-16T11:30:07;15.2;63.3
78704;SHT31;68034;51.966;5.676;2023-04-16T11:32:37;15.3;63.8
78704;SHT31;68034;51.966;5.676;2023-04-16T11:35:15;15.3;63.5
78704;SHT31;68034;51.966;5.676;2023-04-16T11:37:45;15.3;63.9
78704;SHT31;68034;51.966;5.676;2023-04-16T11:40:16;15.3;63.7
78704;SHT31;68034;51.966;5.676;2023-04-16T11:42:47;15.3;63.7
78704;SHT31;68034;51.966;5.676;2023-04-16T11:45:16;15.4;63.4
78704;SHT31;68034;51.966;5.676;2023-04-16T11:47:48;15.4;63.2
78704;SHT31;68034;51.966;5.676;2023-04-16T11:50:24;15.4;63.7
78704;SHT31;68034;51.966;5.676;2023-04-16T11:52:55;15.5;63.7
78704;SHT31;68034;51.966;5.676;2023-04-16T11:55:24;15.5;63.4
78704;SHT31;68034;51.966;5.676;2023-04-16T11:57:54;15.6;63.2
78704;SHT31;68034;51.966;5.676;2023-04-16T12:00:23;15.6;62.4
78704;SHT31;68034;51.966;5.676;2023-04-16T12:02:53;15.6;62.5
78704;SHT31;68034;51.966;5.676;2023-04-16T12:05:30;15.6;62.6
78704;SHT31;68034;51.966;5.676;2023-04-16T12:08:01;15.6;62.5
78704;SHT31;68034;51.966;5.676;2023-04-16T12:10:32;15.6;62.3
78704;SHT31;68034;51.966;5.676;2023-04-16T12:13:13;15.6;62.7
78704;SHT31;68034;51.966;5.676;2023-04-16T12:16:24;15.6;62.5
78704;SHT31;68034;51.966;5.676;2023-04-16T12:19:01;15.5;62.3
78704;SHT31;68034;51.966;5.676;2023-04-16T12:21:44;15.5;62.2
78704;SHT31;68034;51.966;5.676;2023-04-16T12:24:15;15.5;62.4
78704;SHT31;68034;51.966;5.676;2023-04-16T12:26:51;15.4;62.7
78704;SHT31;68034;51.966;5.676;2023-04-16T12:29:23;15.4;62.8
78704;SHT31;68034;51.966;5.676;2023-04-16T12:31:53;15.3;62.5
78704;SHT31;68034;51.966;5.676;2023-04-16T12:34:22;15.3;63.2
78704;SHT31;68034;51.966;5.676;2023-04-16T12:37:05;15.3;63.0
78704;SHT31;68034;51.966;5.676;2023-04-16T12:39:36;15.3;63.6
78704;SHT31;68034;51.966;5.676;2023-04-16T12:42:05;15.3;63.4
78704;SHT31;68034;51.966;5.676;2023-04-16T12:44:36;15.3;63.7
78704;SHT31;68034;51.966;5.676;2023-04-16T12:47:05;15.2;64.2
78704;SHT31;68034;51.966;5.676;2023-04-16T12:49:34;15.3;63.8
78704;SHT31;68034;51.966;5.676;2023-04-16T12:52:04;15.3;63.6
78704;SHT31;68034;51.966;5.676;2023-04-16T12:54:33;15.3;63.9
78704;SHT31;68034;51.966;5.676;2023-04-16T12:57:02;15.3;63.8
78704;SHT31;68034;51.966;5.676;2023-04-16T12:59:31;15.4;63.6
78704;SHT31;68034;51.966;5.676;2023-04-16T13:02:01;15.4;62.9
78704;SHT31;68034;51.966;5.676;2023-04-16T13:04:32;15.4;63.1
78704;SHT31;68034;51.966;5.676;2023-04-16T13:07:01;15.5;62.5
78704;SHT31;68034;51.966;5.676;2023-04-16T13:09:30;15.5;62.7
78704;SHT31;68034;51.966;5.676;2023-04-16T13:11:58;15.5;63.4
78704;SHT31;68034;51.966;5.676;2023-04-16T13:14:27;15.6;63.2
78704;SHT31;68034;51.966;5.676;2023-04-16T13:16:56;15.6;63.1
78704;SHT31;68034;51.966;5.676;2023-04-16T13:19:25;15.7;62.9
78704;SHT31;68034;51.966;5.676;2023-04-16T13:21:56;15.7;62.7
78704;SHT31;68034;51.966;5.676;2023-04-16T13:24:25;15.8;62.9
78704;SHT31;68034;51.966;5.676;2023-04-16T13:26:54;15.9;62.9
78704;SHT31;68034;51.966;5.676;2023-04-16T13:29:23;16.0;61.9
78704;SHT31;68034;51.966;5.676;2023-04-16T13:31:55;16.1;61.6
78704;SHT31;68034;51.966;5.676;2023-04-16T13:34:24;16.1;61.8
78704;SHT31;68034;51.966;5.676;2023-04-16T13:36:55;16.1;61.0
78704;SHT31;68034;51.966;5.676;2023-04-16T13:39:24;16.2;61.0
78704;SHT31;68034;51.966;5.676;2023-04-16T13:41:53;16.3;61.8
78704;SHT31;68034;51.966;5.676;2023-04-16T13:44:21;16.4;61.1
78704;SHT31;68034;51.966;5.676;2023-04-16T13:46:50;16.5;60.6
78704;SHT31;68034;51.966;5.676;2023-04-16T13:49:20;16.6;60.2
78704;SHT31;68034;51.966;5.676;2023-04-16T13:51:49;16.6;59.3
78704;SHT31;68034;51.966;5.676;2023-04-16T13:54:18;16.7;59.7
78704;SHT31;68034;51.966;5.676;2023-04-16T13:56:48;16.8;59.4
78704;SHT31;68034;51.966;5.676;2023-04-16T13:59:18;17.0;59.5
78704;SHT31;68034;51.966;5.676;2023-04-16T14:01:47;17.0;59.5
78704;SHT31;68034;51.966;5.676;2023-04-16T14:04:16;17.1;58.5
78704;SHT31;68034;51.966;5.676;2023-04-16T14:06:44;17.1;58.2
78704;SHT31;68034;51.966;5.676;2023-04-16T14:09:13;17.2;57.7
78704;SHT31;68034;51.966;5.676;2023-04-16T14:11:42;17.2;57.6
78704;SHT31;68034;51.966;5.676;2023-04-16T14:14:13;17.2;57.4
78704;SHT31;68034;51.966;5.676;2023-04-16T14:16:44;17.2;57.2
78704;SHT31;68034;51.966;5.676;2023-04-16T14:19:12;17.2;57.0
78704;SHT31;68034;51.966;5.676;2023-04-16T14:21:41;17.2;57.4
78704;SHT31;68034;51.966;5.676;2023-04-16T14:24:10;17.1;57.6
78704;SHT31;68034;51.966;5.676;2023-04-16T14:26:39;17.1;57.7
78704;SHT31;68034;51.966;5.676;2023-04-16T14:29:10;17.0;57.6
78704;SHT31;68034;51.966;5.676;2023-04-16T14:31:41;17.0;57.9
78704;SHT31;68034;51.966;5.676;2023-04-16T14:34:10;17.0;57.9
78704;SHT31;68034;51.966;5.676;2023-04-16T14:36:41;16.9;58.0
78704;SHT31;68034;51.966;5.676;2023-04-16T14:39:10;16.9;57.8
78704;SHT31;68034;51.966;5.676;2023-04-16T14:41:39;16.8;59.0
78704;SHT31;68034;51.966;5.676;2023-04-16T14:44:08;16.8;58.9
78704;SHT31;68034;51.966;5.676;2023-04-16T14:46:37;16.8;58.3
78704;SHT31;68034;51.966;5.676;2023-04-16T14:49:06;16.7;58.6
78704;SHT31;68034;51.966;5.676;2023-04-16T14:51:36;16.7;59.3
78704;SHT31;68034;51.966;5.676;2023-04-16T14:54:05;16.7;59.6
78704;SHT31;68034;51.966;5.676;2023-04-16T14:56:35;16.7;58.9
78704;SHT31;68034;51.966;5.676;2023-04-16T14:59:03;16.7;59.8
78704;SHT31;68034;51.966;5.676;2023-04-16T15:01:32;16.7;58.5
78704;SHT31;68034;51.966;5.676;2023-04-16T15:04:32;16.8;58.9
78704;SHT31;68034;51.966;5.676;2023-04-16T15:07:40;16.8;57.8
78704;SHT31;68034;51.966;5.676;2023-04-16T15:10:09;16.8;58.4
78704;SHT31;68034;51.966;5.676;2023-04-16T15:12:38;16.8;58.1
78704;SHT31;68034;51.966;5.676;2023-04-16T15:15:08;16.8;58.2
78704;SHT31;68034;51.966;5.676;2023-04-16T15:17:37;16.8;58.5
78704;SHT31;68034;51.966;5.676;2023-04-16T15:20:07;16.8;58.0
78704;SHT31;68034;51.966;5.676;2023-04-16T15:22:36;16.8;58.8
78704;SHT31;68034;51.966;5.676;2023-04-16T15:25:06;16.8;58.8
78704;SHT31;68034;51.966;5.676;2023-04-16T15:27:35;16.8;58.3
78704;SHT31;68034;51.966;5.676;2023-04-16T15:30:04;16.8;58.7
78704;SHT31;68034;51.966;5.676;2023-04-16T15:32:33;16.7;58.2
78704;SHT31;68034;51.966;5.676;2023-04-16T15:35:03;16.7;58.3
78704;SHT31;68034;51.966;5.676;2023-04-16T15:37:34;16.7;58.1
78704;SHT31;68034;51.966;5.676;2023-04-16T15:40:05;16.6;58.8
78704;SHT31;68034;51.966;5.676;2023-04-16T15:42:34;16.6;58.9
78704;SHT31;68034;51.966;5.676;2023-04-16T15:45:03;16.6;58.7
78704;SHT31;68034;51.966;5.676;2023-04-16T15:47:32;16.6;58.8
78704;SHT31;68034;51.966;5.676;2023-04-16T15:50:03;16.6;58.4
78704;SHT31;68034;51.966;5.676;2023-04-16T15:52:34;16.6;58.7
78704;SHT31;68034;51.966;5.676;2023-04-16T15:55:04;16.6;58.4
78704;SHT31;68034;51.966;5.676;2023-04-16T15:57:33;16.6;58.3
78704;SHT31;68034;51.966;5.676;2023-04-16T16:00:02;16.5;59.1
78704;SHT31;68034;51.966;5.676;2023-04-16T16:02:38;16.5;59.4
78704;SHT31;68034;51.966;5.676;2023-04-16T16:05:08;16.5;59.5
78704;SHT31;68034;51.966;5.676;2023-04-16T16:07:38;16.6;59.3
78704;SHT31;68034;51.966;5.676;2023-04-16T16:10:09;16.6;59.4
78704;SHT31;68034;51.966;5.676;2023-04-16T16:12:42;16.6;59.5
78704;SHT31;68034;51.966;5.676;2023-04-16T16:15:12;16.6;59.5
78704;SHT31;68034;51.966;5.676;2023-04-16T16:17:41;16.7;59.5
78704;SHT31;68034;51.966;5.676;2023-04-16T16:20:10;16.7;58.3
78704;SHT31;68034;51.966;5.676;2023-04-16T16:22:40;16.7;58.3